Terminal Aerodrome Forecast
Issued by NWS Sterling, VA

Current Version | Previous Version | Graphics & Text | Print | Product List | Glossary On
Versions: 1 2 3 4 5 6 7 8 9 10 11 12 13 14 15 16 17 18
962
FTUS41 KLWX 232100 AAA
TAFDCA
TAF AMD
KDCA 232100Z 2321/2418 13007KT P6SM SCT050 OVC150
     FM240500 06005KT P6SM SCT025 OVC035
     FM240800 04006KT P6SM -RA BKN015 OVC025
     FM241500 04009KT P6SM -RA BKN020 OVC025
     FM241700 05010G18KT 3SM -RA BKN015 OVC025=

USA.gov is the U.S. government's official web portal to all federal, state and local government web resources and services.